Time;durP1;ratioP1;P1;durP2;ratioP2;P2;SDS_P1;SDS_P2;PMS_P1;PMS_P2;Temp;Humidity;BMP_temperature;BMP_pressure;BME280_temperature;BME280_humidity;BME280_pressure;Samples;Min_cycle;Max_cycle;Signal;HPM_P1;HPM_P2
2022/05/29 00:03:58;;;;;;;;;;;;;;;-145.66;100.00;59599.19;10374013;28;19921;-59
2022/05/29 00:09:00;;;;;;;;;;;;;;;-145.66;100.00;59599.19;10374823;28;19925;-59
2022/05/29 00:14:02;;;;;;;;;;;;;;;-145.66;100.00;59599.19;10374410;28;19925;-59
2022/05/29 00:19:04;;;;;;;;;;;;;;;-145.66;100.00;59599.19;10380238;28;19921;-59
2022/05/29 00:24:07;;;;;;;;;;;;;;;-145.66;100.00;59599.19;10381738;28;19928;-59
2022/05/29 00:29:09;;;;;;;;;;;;;;;-145.66;100.00;59599.19;10381062;28;19921;-59
2022/05/29 00:34:12;;;;;;;;;;;;;;;-145.66;100.00;59599.19;10381934;28;19936;-59
2022/05/29 00:39:14;;;;;;;;;;;;;;;-145.66;100.00;59599.19;10381650;28;20370;-59
2022/05/29 00:44:21;;;;;;;;;;;;;;;-145.66;100.00;59599.19;10396647;28;19928;-59
2022/05/29 00:49:24;;;;;;;;;;;;;;;-145.66;100.00;59599.19;10395963;28;20390;-59
2022/05/29 00:54:28;;;;;;;;;;;;;;;-145.66;100.00;59599.19;10396605;28;19929;-59
2022/05/29 00:59:31;;;;;;;;;;;;;;;-145.66;100.00;59599.19;10381071;28;19925;-59
2022/05/29 01:04:34;;;;;;;;;;;;;;;-145.66;100.00;59599.19;10396001;28;19921;-59
2022/05/29 01:09:36;;;;;;;;;;;;;;;-145.66;100.00;59599.19;10380056;28;20284;-59
2022/05/29 01:14:51;;;;;;;;;;;;;;;-145.66;100.00;59599.19;10380959;28;19921;-59
2022/05/29 01:20:00;;;;;;;;;;;;;;;-145.66;100.00;59599.19;10379136;28;19933;-59
2022/05/29 01:25:02;;;;;;;;;;;;;;;-145.66;100.00;59599.19;10378183;28;20299;-59
2022/05/29 01:30:09;;;;;;;;;;;;;;;-145.66;100.00;59599.19;10379209;28;19921;-59
2022/05/29 01:35:31;;;;;;;;;;;;;;;-145.66;100.00;59599.19;10377854;28;19921;-59
2022/05/29 01:40:36;;;;;;;;;;;;;;;-145.66;100.00;59599.19;10378817;28;20275;-59
2022/05/29 01:45:58;;;;;;;;;;;;;;;-145.66;100.00;59599.19;10377545;28;19932;-59
2022/05/29 01:51:30;;;;;;;;;;;;;;;-145.66;100.00;59599.19;10379124;28;19921;-59
2022/05/29 01:56:33;;;;;;;;;;;;;;;-145.66;100.00;59599.19;10369032;28;20396;-59
2022/05/29 02:01:36;;;;;;;;;;;;;;;-145.66;100.00;59599.19;10376463;28;19927;-59
2022/05/29 02:12:00;;;;;;;;;;;;;;;-145.66;100.00;59599.19;10390611;28;20011;-59
2022/05/29 02:17:04;;;;;;;;;;;;;;;-145.66;100.00;59599.19;10377976;28;19932;-60
2022/05/29 02:22:10;;;;;;;;;;;;;;;-145.66;100.00;59599.19;10392910;28;19929;-59
2022/05/29 02:27:21;;;;;;;;;;;;;;;-145.66;100.00;59599.19;10376515;28;19932;-59
2022/05/29 02:32:34;;;;;;;;;;;;;;;-145.66;100.00;59599.19;10375792;28;20392;-60
2022/05/29 02:37:39;;;;;;;;;;;;;;;-145.66;100.00;59599.19;10375367;28;19921;-60
2022/05/29 02:42:51;;;;;;;;;;;;;;;-145.66;100.00;59599.19;10375596;28;19922;-59
2022/05/29 02:48:07;;;;;;;;;;;;;;;-145.66;100.00;59599.19;10376974;28;19991;-59
2022/05/29 02:53:10;;;;;;;;;;;;;;;-145.66;100.00;59599.19;10375901;28;20288;-59
2022/05/29 02:58:18;;;;;;;;;;;;;;;-145.66;100.00;59599.19;10375617;28;20278;-59
2022/05/29 03:03:29;;;;;;;;;;;;;;;-145.66;100.00;59599.19;10374606;28;20343;-59
2022/05/29 03:08:34;;;;;;;;;;;;;;;-145.66;100.00;59599.19;10374907;28;19964;-59
2022/05/29 03:13:43;;;;;;;;;;;;;;;-145.66;100.00;59599.19;10391217;28;19922;-58
2022/05/29 03:19:04;;;;;;;;;;;;;;;-145.66;100.00;59599.19;10391027;28;19925;-59
2022/05/29 03:24:06;;;;;;;;;;;;;;;-145.66;100.00;59599.19;10374901;28;20372;-58
2022/05/29 03:29:10;;;;;;;;;;;;;;;-145.66;100.00;59599.19;10374392;28;19922;-59
2022/05/29 03:34:12;;;;;;;;;;;;;;;-145.66;100.00;59599.19;10376093;28;19925;-59
2022/05/29 03:39:15;;;;;;;;;;;;;;;-145.66;100.00;59599.19;10374514;28;19921;-59
2022/05/29 03:44:19;;;;;;;;;;;;;;;-145.66;100.00;59599.19;10374660;28;19922;-59
2022/05/29 03:49:21;;;;;;;;;;;;;;;-145.66;100.00;59599.19;10374075;28;20328;-59
2022/05/29 03:54:24;;;;;;;;;;;;;;;-145.66;100.00;59599.19;10387937;28;19936;-59
2022/05/29 03:59:26;;;;;;;;;;;;;;;-145.66;100.00;59599.19;10387848;28;20292;-60
2022/05/29 04:04:28;;;;;;;;;;;;;;;-145.66;100.00;59599.19;10387763;28;20357;-59
2022/05/29 04:14:51;;;;;;;;;;;;;;;-145.66;100.00;59599.19;10387635;28;20361;-59
2022/05/29 04:19:53;;;;;;;;;;;;;;;-145.66;100.00;59599.19;10387435;28;20388;-59
2022/05/29 04:24:55;;;;;;;;;;;;;;;-145.66;100.00;59599.19;10387853;28;19922;-59
2022/05/29 04:29:58;;;;;;;;;;;;;;;-145.66;100.00;59599.19;10387932;28;19927;-59
2022/05/29 04:35:00;;;;;;;;;;;;;;;-145.66;100.00;59599.19;10387720;28;19926;-59
2022/05/29 04:40:02;;;;;;;;;;;;;;;-145.66;100.00;59599.19;10388167;28;19921;-59
2022/05/29 04:45:05;;;;;;;;;;;;;;;-145.66;100.00;59599.19;10387460;28;19929;-59
2022/05/29 04:50:07;;;;;;;;;;;;;;;-145.66;100.00;59599.19;10387041;28;19928;-59
2022/05/29 04:55:09;;;;;;;;;;;;;;;-145.66;100.00;59599.19;10387667;28;19928;-59
2022/05/29 05:00:16;;;;;;;;;;;;;;;-145.66;100.00;59599.19;10386258;28;19921;-58
2022/05/29 05:05:18;;;;;;;;;;;;;;;-145.66;100.00;59599.19;10380682;28;19928;-58
2022/05/29 05:10:21;;;;;;;;;;;;;;;-145.66;100.00;59599.19;10380595;28;19921;-59
2022/05/29 05:15:23;;;;;;;;;;;;;;;-145.66;100.00;59599.19;10379910;28;20316;-59
2022/05/29 05:20:25;;;;;;;;;;;;;;;-145.66;100.00;59599.19;10379487;28;19921;-59
2022/05/29 05:25:27;;;;;;;;;;;;;;;-145.66;100.00;59599.19;10380180;28;19921;-60
2022/05/29 05:30:30;;;;;;;;;;;;;;;-145.66;100.00;59599.19;10379392;28;19921;-59
2022/05/29 05:35:32;;;;;;;;;;;;;;;-145.66;100.00;59599.19;10380124;28;19921;-59
2022/05/29 05:40:34;;;;;;;;;;;;;;;-145.66;100.00;59599.19;10379536;28;19925;-59
2022/05/29 05:45:39;;;;;;;;;;;;;;;-145.66;100.00;59599.19;10378415;28;19928;-59
2022/05/29 05:50:41;;;;;;;;;;;;;;;-145.66;100.00;59599.19;10378961;28;19921;-59
2022/05/29 05:55:43;;;;;;;;;;;;;;;-145.66;100.00;59599.19;10379007;28;19932;-59
2022/05/29 06:00:46;;;;;;;;;;;;;;;-145.66;100.00;59599.19;10377991;28;19921;-58
2022/05/29 06:05:48;;;;;;;;;;;;;;;-145.66;100.00;59599.19;10378005;28;20394;-59
2022/05/29 06:10:51;;;;;;;;;;;;;;;-145.66;100.00;59599.19;10377522;28;19921;-58
2022/05/29 06:15:53;;;;;;;;;;;;;;;-145.66;100.00;59599.19;10377472;28;20287;-59
2022/05/29 06:20:56;;;;;;;;;;;;;;;-145.66;100.00;59599.19;10377713;28;19927;-59
2022/05/29 06:26:02;;;;;;;;;;;;;;;-145.66;100.00;59599.19;10377858;28;19921;-59
2022/05/29 06:31:05;;;;;;;;;;;;;;;-145.66;100.00;59599.19;10377027;28;20383;-59
2022/05/29 06:36:12;;;;;;;;;;;;;;;-145.66;100.00;59599.19;10377298;28;20004;-59
2022/05/29 06:41:16;;;;;;;;;;;;;;;-145.66;100.00;59599.19;10377014;28;19922;-59
2022/05/29 06:46:20;;;;;;;;;;;;;;;-145.66;100.00;59599.19;10377150;28;20028;-59
2022/05/29 06:51:22;;;;;;;;;;;;;;;-145.66;100.00;59599.19;10376633;28;19968;-58
2022/05/29 06:56:26;;;;;;;;;;;;;;;-145.66;100.00;59599.19;10374973;28;20357;-58
2022/05/29 07:07:01;;;;;;;;;;;;;;;-145.66;100.00;59599.19;10376144;28;19968;-59
2022/05/29 07:12:20;;;;;;;;;;;;;;;-145.66;100.00;59599.19;10389441;28;19925;-59
2022/05/29 07:17:22;;;;;;;;;;;;;;;-145.66;100.00;59599.19;10375396;28;20376;-59
2022/05/29 07:22:26;;;;;;;;;;;;;;;-145.66;100.00;59599.19;10374051;28;19921;-59
2022/05/29 07:27:28;;;;;;;;;;;;;;;-145.66;100.00;59599.19;10374485;28;19927;-59
2022/05/29 07:32:30;;;;;;;;;;;;;;;-145.66;100.00;59599.19;10375619;28;19921;-59
2022/05/29 07:37:33;;;;;;;;;;;;;;;-145.66;100.00;59599.19;10375514;28;19944;-60
2022/05/29 07:48:09;;;;;;;;;;;;;;;-145.66;100.00;59599.19;10363210;28;20356;-60
2022/05/29 07:53:11;;;;;;;;;;;;;;;-145.66;100.00;59599.19;10375111;28;19921;-60
2022/05/29 07:58:14;;;;;;;;;;;;;;;-145.66;100.00;59599.19;10374055;28;19964;-60
2022/05/29 08:03:17;;;;;;;;;;;;;;;-145.66;100.00;59599.19;10372837;28;19922;-60
2022/05/29 08:08:19;;;;;;;;;;;;;;;-145.66;100.00;59599.19;10374533;28;19928;-60
2022/05/29 08:13:22;;;;;;;;;;;;;;;-145.66;100.00;59599.19;10374239;28;19928;-60
2022/05/29 08:18:25;;;;;;;;;;;;;;;-145.66;100.00;59599.19;10374497;28;19932;-59
2022/05/29 08:23:27;;;;;;;;;;;;;;;-145.66;100.00;59599.19;10374062;28;19929;-60
2022/05/29 08:33:51;;;;;;;;;;;;;;;-145.66;100.00;59599.19;10374177;28;19928;-59
2022/05/29 08:38:56;;;;;;;;;;;;;;;-145.66;100.00;59599.19;10377049;28;19921;-59
2022/05/29 08:44:03;;;;;;;;;;;;;;;-145.66;100.00;59599.19;10381937;28;19925;-59
2022/05/29 08:49:05;;;;;;;;;;;;;;;-145.66;100.00;59599.19;10379666;28;19922;-59
2022/05/29 08:54:09;;;;;;;;;;;;;;;-145.66;100.00;59599.19;10380054;28;19921;-59
2022/05/29 08:59:30;;;;;;;;;;;;;;;-145.66;100.00;59599.19;10382632;28;19921;-59
2022/05/29 09:04:42;;;;;;;;;;;;;;;-145.66;100.00;59599.19;10380434;28;19928;-59
2022/05/29 09:09:49;;;;;;;;;;;;;;;-145.66;100.00;59599.19;10379070;28;19933;-59
2022/05/29 09:14:57;;;;;;;;;;;;;;;-145.66;100.00;59599.19;10387300;28;19952;-59
2022/05/29 09:20:10;;;;;;;;;;;;;;;-145.66;100.00;59599.19;10380476;28;19925;-59
2022/05/29 09:25:18;;;;;;;;;;;;;;;-145.66;100.00;59599.19;10377853;28;20373;-59
2022/05/29 09:30:20;;;;;;;;;;;;;;;-145.66;100.00;59599.19;10380055;28;19921;-59
2022/05/29 09:35:28;;;;;;;;;;;;;;;-145.66;100.00;59599.19;10379915;28;19928;-59
2022/05/29 09:40:38;;;;;;;;;;;;;;;-145.66;100.00;59599.19;10370574;28;19921;-59
2022/05/29 09:45:40;;;;;;;;;;;;;;;-145.66;100.00;59599.19;10387417;28;19921;-59
2022/05/29 09:50:45;;;;;;;;;;;;;;;-145.66;100.00;59599.19;10371102;28;20373;-59
2022/05/29 09:56:06;;;;;;;;;;;;;;;-145.66;100.00;59599.19;10370948;28;19944;-59
2022/05/29 10:01:09;;;;;;;;;;;;;;;-145.66;100.00;59599.19;10370967;28;20015;-59
2022/05/29 10:06:22;;;;;;;;;;;;;;;-145.66;100.00;59599.19;10367665;28;19975;-59
2022/05/29 10:11:28;;;;;;;;;;;;;;;-145.66;100.00;59599.19;10368399;28;20385;-59
2022/05/29 10:16:35;;;;;;;;;;;;;;;-145.66;100.00;59599.19;10370596;28;19932;-59
2022/05/29 10:21:41;;;;;;;;;;;;;;;-145.66;100.00;59599.19;10371554;28;19925;-59
2022/05/29 10:26:46;;;;;;;;;;;;;;;-145.66;100.00;59599.19;10329984;28;19925;-59
2022/05/29 10:31:49;;;;;;;;;;;;;;;-145.66;100.00;59599.19;10328077;28;20392;-59
2022/05/29 10:36:51;;;;;;;;;;;;;;;-145.66;100.00;59599.19;10334175;28;20372;-59
2022/05/29 10:41:55;;;;;;;;;;;;;;;-145.66;100.00;59599.19;10368183;28;20380;-59
2022/05/29 10:47:19;;;;;;;;;;;;;;;-145.66;100.00;59599.19;10370002;28;19933;-59
2022/05/29 10:52:21;;;;;;;;;;;;;;;-145.66;100.00;59599.19;10367618;28;20282;-60
2022/05/29 10:57:49;;;;;;;;;;;;;;;-145.66;100.00;59599.19;10367438;28;20266;-59
2022/05/29 11:08:18;;;;;;;;;;;;;;;-145.66;100.00;59599.19;10368676;28;20361;-59
2022/05/29 11:13:24;;;;;;;;;;;;;;;-145.66;100.00;59599.19;10369040;28;19925;-59
2022/05/29 11:18:45;;;;;;;;;;;;;;;-145.66;100.00;59599.19;10367813;28;19921;-59
2022/05/29 11:23:59;;;;;;;;;;;;;;;-145.66;100.00;59599.19;10368949;28;19932;-60
2022/05/29 11:29:05;;;;;;;;;;;;;;;-145.66;100.00;59599.19;10369200;28;19933;-59
2022/05/29 11:34:33;;;;;;;;;;;;;;;-145.66;100.00;59599.19;10367117;28;19932;-59
2022/05/29 11:39:40;;;;;;;;;;;;;;;-145.66;100.00;59599.19;10368379;28;20360;-59
2022/05/29 11:44:43;;;;;;;;;;;;;;;-145.66;100.00;59599.19;10382549;28;20280;-59
2022/05/29 11:55:10;;;;;;;;;;;;;;;-145.66;100.00;59599.19;10367745;28;19926;-59
2022/05/29 12:00:15;;;;;;;;;;;;;;;-145.66;100.00;59599.19;10443917;23;19924;-65
2022/05/29 12:05:28;;;;;;;;;;;;;;;-145.66;100.00;59599.19;10408540;28;19925;-65
2022/05/29 12:10:32;;;;;;;;;;;;;;;-145.66;100.00;59599.19;10447225;28;20014;-65
2022/05/29 12:15:34;;;;;;;;;;;;;;;-145.66;100.00;59599.19;10439650;28;20290;-65
2022/05/29 12:20:36;;;;;;;;;;;;;;;-145.66;100.00;59599.19;10457101;28;19944;-65
2022/05/29 12:25:40;;;;;;;;;;;;;;;-145.66;100.00;59599.19;10457344;28;19932;-65
2022/05/29 12:30:43;;;;;;;;;;;;;;;-145.66;100.00;59599.19;10456291;28;19924;-65
2022/05/29 12:35:55;;;;;;;;;;;;;;;-145.66;100.00;59599.19;10439634;28;19929;-65
2022/05/29 12:41:06;;;;;;;;;;;;;;;-145.66;100.00;59599.19;10451816;28;19935;-65
2022/05/29 12:46:26;;;;;;;;;;;;;;;-145.66;100.00;59599.19;10411422;28;19932;-65
2022/05/29 12:51:47;;;;;;;;;;;;;;;-145.66;100.00;59599.19;10415614;28;19924;-65
2022/05/29 12:56:53;;;;;;;;;;;;;;;-145.66;100.00;59599.19;10443236;28;19931;-65
2022/05/29 13:01:59;;;;;;;;;;;;;;;-145.66;100.00;59599.19;10455556;28;19936;-65
2022/05/29 13:07:14;;;;;;;;;;;;;;;-145.66;100.00;59599.19;10455391;28;20363;-65
2022/05/29 13:12:18;;;;;;;;;;;;;;;-145.66;100.00;59599.19;10437750;28;19947;-65
2022/05/29 13:17:21;;;;;;;;;;;;;;;-145.66;100.00;59599.19;10454508;28;19931;-64
2022/05/29 13:22:42;;;;;;;;;;;;;;;-145.66;100.00;59599.19;10453482;28;19925;-65
2022/05/29 13:27:45;;;;;;;;;;;;;;;-145.66;100.00;59599.19;10455186;28;19932;-65
2022/05/29 13:32:47;;;;;;;;;;;;;;;-145.66;100.00;59599.19;10454653;28;20273;-65
2022/05/29 13:37:49;;;;;;;;;;;;;;;-145.66;100.00;59599.19;10409999;28;19925;-65
2022/05/29 13:42:53;;;;;;;;;;;;;;;-145.66;100.00;59599.19;10450664;28;19928;-65
2022/05/29 13:48:02;;;;;;;;;;;;;;;-145.66;100.00;59599.19;10454828;28;19925;-65
2022/05/29 13:53:12;;;;;;;;;;;;;;;-145.66;100.00;59599.19;10453734;28;19928;-65
2022/05/29 14:03:59;;;;;;;;;;;;;;;-145.66;100.00;59599.19;10448034;28;19928;-64
2022/05/29 14:09:23;;;;;;;;;;;;;;;-145.66;100.00;59599.19;10457425;28;19974;-65
2022/05/29 14:14:31;;;;;;;;;;;;;;;-145.66;100.00;59599.19;10459032;28;20351;-65
2022/05/29 14:19:43;;;;;;;;;;;;;;;-145.66;100.00;59599.19;10458392;28;19921;-65
2022/05/29 14:24:49;;;;;;;;;;;;;;;-145.66;100.00;59599.19;10458214;28;19920;-65
2022/05/29 14:30:06;;;;;;;;;;;;;;;-145.66;100.00;59599.19;10456093;28;19921;-65
2022/05/29 14:35:27;;;;;;;;;;;;;;;-145.66;100.00;59599.19;10457647;28;19920;-65
2022/05/29 14:40:35;;;;;;;;;;;;;;;-145.66;100.00;59599.19;10459403;28;20302;-65
2022/05/29 14:45:37;;;;;;;;;;;;;;;-145.66;100.00;59599.19;10456917;28;19932;-65
2022/05/29 14:50:58;;;;;;;;;;;;;;;-145.66;100.00;59599.19;10455989;28;19920;-64
2022/05/29 14:56:01;;;;;;;;;;;;;;;-145.66;100.00;59599.19;10442246;28;19930;-65
2022/05/29 15:01:05;;;;;;;;;;;;;;;-145.66;100.00;59599.19;10451298;28;19924;-64
2022/05/29 15:06:11;;;;;;;;;;;;;;;-145.66;100.00;59599.19;10449712;28;20050;-64
2022/05/29 15:11:15;;;;;;;;;;;;;;;-145.66;100.00;59599.19;10424610;28;20414;-65
2022/05/29 15:16:20;;;;;;;;;;;;;;;-145.66;100.00;59599.19;10444862;28;19925;-65
2022/05/29 15:26:47;;;;;;;;;;;;;;;-145.66;100.00;59599.19;10437512;28;19924;-65
2022/05/29 15:31:51;;;;;;;;;;;;;;;-145.66;100.00;59599.19;10450740;28;19920;-65
2022/05/29 15:37:12;;;;;;;;;;;;;;;-145.66;100.00;59599.19;10450665;28;19921;-65
2022/05/29 15:42:25;;;;;;;;;;;;;;;-145.66;100.00;59599.19;10449219;28;19925;-65
2022/05/29 15:47:27;;;;;;;;;;;;;;;-145.66;100.00;59599.19;10408862;28;19928;-65
2022/05/29 15:52:36;;;;;;;;;;;;;;;-145.66;100.00;59599.19;10436016;28;20363;-65
2022/05/29 15:57:41;;;;;;;;;;;;;;;-145.66;100.00;59599.19;10449157;28;19924;-65
2022/05/29 16:02:47;;;;;;;;;;;;;;;-145.66;100.00;59599.19;10448389;28;19921;-65
2022/05/29 16:07:49;;;;;;;;;;;;;;;-145.66;100.00;59599.19;10449611;28;19970;-65
2022/05/29 16:12:55;;;;;;;;;;;;;;;-145.66;100.00;59599.19;10419631;28;19921;-65
2022/05/29 16:18:18;;;;;;;;;;;;;;;-145.66;100.00;59599.19;10406062;28;19928;-65
2022/05/29 16:23:23;;;;;;;;;;;;;;;-145.66;100.00;59599.19;10397588;28;20260;-65
2022/05/29 16:28:40;;;;;;;;;;;;;;;-145.66;100.00;59599.19;10413105;28;20295;-65
2022/05/29 16:33:45;;;;;;;;;;;;;;;-145.66;100.00;59599.19;10447993;28;19924;-65
2022/05/29 16:49:34;;;;;;;;;;;;;;;-145.66;100.00;59599.19;10448268;28;20280;-65
2022/05/29 16:54:36;;;;;;;;;;;;;;;-145.66;100.00;59599.19;10448101;28;20470;-65
2022/05/29 16:59:47;;;;;;;;;;;;;;;-145.66;100.00;59599.19;10451845;28;19921;-65
2022/05/29 17:05:09;;;;;;;;;;;;;;;-145.66;100.00;59599.19;10428155;28;19925;-65
2022/05/29 17:10:20;;;;;;;;;;;;;;;-145.66;100.00;59599.19;10415838;28;20011;-65
2022/05/29 17:15:24;;;;;;;;;;;;;;;-145.66;100.00;59599.19;10436221;28;20319;-65
2022/05/29 17:20:26;;;;;;;;;;;;;;;-145.66;100.00;59599.19;10454363;28;19949;-65
2022/05/29 17:25:28;;;;;;;;;;;;;;;-145.66;100.00;59599.19;10454037;28;19925;-65
2022/05/29 17:30:34;;;;;;;;;;;;;;;-145.66;100.00;59599.19;10454801;28;20307;-65
2022/05/29 17:35:41;;;;;;;;;;;;;;;-145.66;100.00;59599.19;10453974;28;19931;-65
2022/05/29 17:41:03;;;;;;;;;;;;;;;-145.66;100.00;59599.19;10453706;28;19967;-65
2022/05/29 17:46:11;;;;;;;;;;;;;;;-145.66;100.00;59599.19;10453526;28;19925;-65
2022/05/29 17:51:13;;;;;;;;;;;;;;;-145.66;100.00;59599.19;10454978;28;19924;-65
2022/05/29 17:56:16;;;;;;;;;;;;;;;-145.66;100.00;59599.19;10453797;28;19966;-64
2022/05/29 18:01:19;;;;;;;;;;;;;;;-145.66;100.00;59599.19;10407272;28;19921;-65
2022/05/29 18:06:21;;;;;;;;;;;;;;;-145.66;100.00;59599.19;10415887;28;20461;-65
2022/05/29 18:11:24;;;;;;;;;;;;;;;-145.66;100.00;59599.19;10412091;28;20286;-65
2022/05/29 18:16:26;;;;;;;;;;;;;;;-145.66;100.00;59599.19;10411164;28;19931;-65
2022/05/29 18:21:28;;;;;;;;;;;;;;;-145.66;100.00;59599.19;10412219;28;19975;-65
2022/05/29 18:26:31;;;;;;;;;;;;;;;-145.66;100.00;59599.19;10411760;28;19925;-65
2022/05/29 18:31:34;;;;;;;;;;;;;;;-145.66;100.00;59599.19;10409938;28;20399;-65
2022/05/29 18:36:37;;;;;;;;;;;;;;;-145.66;100.00;59599.19;10410284;28;19925;-65
2022/05/29 18:41:39;;;;;;;;;;;;;;;-145.66;100.00;59599.19;10441931;28;19925;-65
2022/05/29 18:46:43;;;;;;;;;;;;;;;-145.66;100.00;59599.19;10452469;28;19931;-65
2022/05/29 18:51:45;;;;;;;;;;;;;;;-145.66;100.00;59599.19;10456136;28;20376;-65
2022/05/29 18:56:48;;;;;;;;;;;;;;;-145.66;100.00;59599.19;10458848;28;19931;-65
2022/05/29 19:01:53;;;;;;;;;;;;;;;-145.66;100.00;59599.19;10457017;28;19943;-65
2022/05/29 19:06:55;;;;;;;;;;;;;;;-145.66;100.00;59599.19;10455291;28;20272;-65
2022/05/29 19:12:05;;;;;;;;;;;;;;;-145.66;100.00;59599.19;10458447;28;20359;-66
2022/05/29 19:18:09;;;;;;;;;;;;;;;-145.66;100.00;59599.19;10456343;28;20024;-65
2022/05/29 19:22:29;;;;;;;;;;;;;;;-145.66;100.00;59599.19;10455811;28;19921;-65
2022/05/29 19:27:32;;;;;;;;;;;;;;;-145.66;100.00;59599.19;10456906;28;19928;-65
2022/05/29 19:32:35;;;;;;;;;;;;;;;-145.66;100.00;59599.19;10456122;28;19920;-65
2022/05/29 19:37:37;;;;;;;;;;;;;;;-145.66;100.00;59599.19;10457709;28;19939;-65
2022/05/29 19:42:40;;;;;;;;;;;;;;;-145.66;100.00;59599.19;10456030;28;19921;-65
2022/05/29 19:47:43;;;;;;;;;;;;;;;-145.66;100.00;59599.19;10457403;28;19927;-65
2022/05/29 19:52:46;;;;;;;;;;;;;;;-145.66;100.00;59599.19;10456183;28;19921;-65
2022/05/29 19:57:49;;;;;;;;;;;;;;;-145.66;100.00;59599.19;10456665;28;19927;-66
2022/05/29 20:02:51;;;;;;;;;;;;;;;-145.66;100.00;59599.19;10455217;28;20283;-65
2022/05/29 20:07:53;;;;;;;;;;;;;;;-145.66;100.00;59599.19;10456503;28;19928;-65
2022/05/29 20:12:57;;;;;;;;;;;;;;;-145.66;100.00;59599.19;10456261;28;19944;-65
2022/05/29 20:17:59;;;;;;;;;;;;;;;-145.66;100.00;59599.19;10456183;28;20295;-65
2022/05/29 20:23:01;;;;;;;;;;;;;;;-145.66;100.00;59599.19;10457368;28;19992;-65
2022/05/29 20:28:05;;;;;;;;;;;;;;;-145.66;100.00;59599.19;10456340;28;19928;-65
2022/05/29 20:33:07;;;;;;;;;;;;;;;-145.66;100.00;59599.19;10458852;28;19925;-65
2022/05/29 20:38:09;;;;;;;;;;;;;;;-145.66;100.00;59599.19;10464148;28;19956;-65
2022/05/29 20:43:12;;;;;;;;;;;;;;;-145.66;100.00;59599.19;10463587;28;20382;-65
2022/05/29 20:48:14;;;;;;;;;;;;;;;-145.66;100.00;59599.19;10463420;28;19920;-65
2022/05/29 20:53:16;;;;;;;;;;;;;;;-145.66;100.00;59599.19;10459081;28;20300;-65
2022/05/29 20:58:18;;;;;;;;;;;;;;;-145.66;100.00;59599.19;10463093;28;19944;-65
2022/05/29 21:03:21;;;;;;;;;;;;;;;-145.66;100.00;59599.19;10463451;28;19920;-65
2022/05/29 21:08:23;;;;;;;;;;;;;;;-145.66;100.00;59599.19;10461702;28;19920;-66
2022/05/29 21:13:25;;;;;;;;;;;;;;;-145.66;100.00;59599.19;10462309;28;20284;-65
2022/05/29 21:18:27;;;;;;;;;;;;;;;-145.66;100.00;59599.19;10462227;28;20400;-65
2022/05/29 21:23:30;;;;;;;;;;;;;;;-145.66;100.00;59599.19;10462474;28;19920;-65
2022/05/29 21:28:35;;;;;;;;;;;;;;;-145.66;100.00;59599.19;10461616;28;20382;-65
2022/05/29 21:33:38;;;;;;;;;;;;;;;-145.66;100.00;59599.19;10461572;28;19920;-65
2022/05/29 21:38:40;;;;;;;;;;;;;;;-145.66;100.00;59599.19;10461554;28;20291;-65
2022/05/29 21:43:42;;;;;;;;;;;;;;;-145.66;100.00;59599.19;10460949;28;19921;-65
2022/05/29 21:48:45;;;;;;;;;;;;;;;-145.66;100.00;59599.19;10461689;28;19921;-65
2022/05/29 21:53:47;;;;;;;;;;;;;;;-145.66;100.00;59599.19;10460704;28;19928;-65
2022/05/29 21:58:50;;;;;;;;;;;;;;;-145.66;100.00;59599.19;10459726;28;19928;-65
2022/05/29 22:03:54;;;;;;;;;;;;;;;-145.66;100.00;59599.19;10460125;28;19921;-65
2022/05/29 22:08:57;;;;;;;;;;;;;;;-145.66;100.00;59599.19;10460981;28;19967;-65
2022/05/29 22:13:59;;;;;;;;;;;;;;;-145.66;100.00;59599.19;10460645;28;19931;-65
2022/05/29 22:19:01;;;;;;;;;;;;;;;-145.66;100.00;59599.19;10459363;28;20348;-65
2022/05/29 22:24:05;;;;;;;;;;;;;;;-145.66;100.00;59599.19;10460241;28;19928;-65
2022/05/29 22:29:07;;;;;;;;;;;;;;;-145.66;100.00;59599.19;10459242;28;20429;-65
2022/05/29 22:34:14;;;;;;;;;;;;;;;-145.66;100.00;59599.19;10458840;28;19928;-65
2022/05/29 22:39:16;;;;;;;;;;;;;;;-145.66;100.00;59599.19;10459735;28;19927;-65
2022/05/29 22:44:19;;;;;;;;;;;;;;;-145.66;100.00;59599.19;10458806;28;19927;-65
2022/05/29 22:49:24;;;;;;;;;;;;;;;-145.66;100.00;59599.19;10458379;28;19921;-65
2022/05/29 22:54:26;;;;;;;;;;;;;;;-145.66;100.00;59599.19;10457368;28;20390;-65
2022/05/29 22:59:28;;;;;;;;;;;;;;;-145.66;100.00;59599.19;10456569;28;19932;-65
2022/05/29 23:04:35;;;;;;;;;;;;;;;-145.66;100.00;59599.19;10457609;28;20398;-65
2022/05/29 23:09:38;;;;;;;;;;;;;;;-145.66;100.00;59599.19;10416074;28;19925;-65
2022/05/29 23:14:40;;;;;;;;;;;;;;;-145.66;100.00;59599.19;10415962;28;19921;-65
2022/05/29 23:19:42;;;;;;;;;;;;;;;-145.66;100.00;59599.19;10450886;28;19921;-65
2022/05/29 23:24:45;;;;;;;;;;;;;;;-145.66;100.00;59599.19;10457709;28;20320;-65
2022/05/29 23:30:06;;;;;;;;;;;;;;;-145.66;100.00;59599.19;10456025;28;20380;-65
2022/05/29 23:35:09;;;;;;;;;;;;;;;-145.66;100.00;59599.19;10457590;28;20035;-65
2022/05/29 23:40:12;;;;;;;;;;;;;;;-145.66;100.00;59599.19;10455795;28;20283;-65
2022/05/29 23:45:20;;;;;;;;;;;;;;;-145.66;100.00;59599.19;10457146;28;19950;-65
2022/05/29 23:50:23;;;;;;;;;;;;;;;-145.66;100.00;59599.19;10456400;28;19943;-65
2022/05/29 23:55:25;;;;;;;;;;;;;;;-145.66;100.00;59599.19;10455342;28;20382;-65
